createdAt,value
2022-08-18T00:00:10.887Z,21.82
2022-08-18T00:02:46.542Z,21.75
2022-08-18T00:05:17.995Z,21.75
2022-08-18T00:07:49.289Z,21.76
2022-08-18T00:10:20.522Z,21.62
2022-08-18T00:12:51.651Z,21.63
2022-08-18T00:15:24.632Z,21.68
2022-08-18T00:17:55.692Z,21.77
2022-08-18T00:20:27.393Z,21.67
2022-08-18T00:22:58.464Z,21.52
2022-08-18T00:25:31.024Z,21.68
2022-08-18T00:28:02.002Z,21.66
2022-08-18T00:30:33.320Z,21.61
2022-08-18T00:33:04.542Z,21.56
2022-08-18T00:35:39.011Z,21.42
2022-08-18T00:38:24.275Z,21.15
2022-08-18T00:40:49.587Z,21.16
2022-08-18T00:43:28.003Z,21.17
2022-08-18T00:45:59.391Z,21.26
2022-08-18T00:48:30.423Z,21.31
2022-08-18T00:51:04.009Z,21.29
2022-08-18T00:53:42.061Z,21.31
2022-08-18T00:56:15.893Z,21.41
2022-08-18T00:58:52.550Z,21.38
2022-08-18T01:01:26.581Z,21.36
2022-08-18T01:04:00.810Z,21.33
2022-08-18T01:06:38.010Z,21.34
2022-08-18T01:09:11.420Z,21.24
2022-08-18T01:11:43.831Z,21.22
2022-08-18T01:14:19.271Z,21.24
2022-08-18T01:17:10.158Z,21.23
2022-08-18T01:19:59.833Z,21.13
2022-08-18T01:22:50.741Z,21.20
2022-08-18T01:25:41.951Z,21.03
2022-08-18T01:28:13.030Z,21.04
2022-08-18T01:30:49.770Z,21.10
2022-08-18T01:33:21.247Z,21.11
2022-08-18T01:35:54.809Z,21.15
2022-08-18T01:38:27.367Z,21.11
2022-08-18T01:41:22.913Z,21.13
2022-08-18T01:43:31.218Z,21.08
2022-08-18T01:46:04.005Z,21.01
2022-08-18T01:48:37.296Z,21.00
2022-08-18T01:51:10.739Z,20.99
2022-08-18T01:53:42.163Z,20.90
2022-08-18T01:56:13.669Z,20.93
2022-08-18T01:58:46.708Z,21.00
2022-08-18T02:01:17.877Z,20.77
2022-08-18T02:03:51.751Z,20.94
2022-08-18T02:06:32.215Z,20.67
2022-08-18T02:08:56.337Z,20.50
2022-08-18T02:11:28.410Z,20.74
2022-08-18T02:13:59.692Z,20.76
2022-08-18T02:16:30.791Z,20.77
2022-08-18T02:19:03.326Z,20.70
2022-08-18T02:21:34.375Z,20.75
2022-08-18T02:24:07.376Z,20.59
2022-08-18T02:26:38.854Z,20.74
2022-08-18T02:29:10.009Z,20.65
2022-08-18T02:31:41.029Z,20.64
2022-08-18T02:34:11.821Z,20.50
2022-08-18T02:36:42.992Z,20.60
2022-08-18T02:39:14.347Z,20.60
2022-08-18T02:41:45.651Z,20.56
2022-08-18T02:44:17.939Z,20.58
2022-08-18T02:46:50.488Z,20.64
2022-08-18T02:49:21.786Z,20.65
2022-08-18T02:51:54.294Z,20.67
2022-08-18T02:54:26.597Z,20.67
2022-08-18T02:56:57.924Z,20.72
2022-08-18T02:59:31.959Z,20.71
2022-08-18T03:02:02.365Z,20.72
2022-08-18T03:04:34.069Z,20.63
2022-08-18T03:07:07.387Z,20.65
2022-08-18T03:09:39.177Z,20.60
2022-08-18T03:12:11.109Z,20.49
2022-08-18T03:14:42.189Z,20.45
2022-08-18T03:17:14.659Z,20.52
2022-08-18T03:19:47.750Z,20.58
2022-08-18T03:22:27.488Z,20.50
2022-08-18T03:24:51.907Z,20.46
2022-08-18T03:27:23.023Z,20.43
2022-08-18T03:29:55.894Z,20.39
2022-08-18T03:32:28.615Z,20.38
2022-08-18T03:35:00.340Z,20.40
2022-08-18T03:37:31.100Z,20.35
2022-08-18T03:40:02.489Z,20.39
2022-08-18T03:42:33.319Z,20.41
2022-08-18T03:45:14.286Z,20.40
2022-08-18T03:47:37.481Z,20.42
2022-08-18T03:50:09.870Z,20.47
2022-08-18T03:52:42.354Z,20.37
2022-08-18T03:55:13.148Z,20.35
2022-08-18T03:57:45.992Z,20.46
2022-08-18T04:00:17.475Z,20.49
2022-08-18T04:02:49.802Z,20.52
2022-08-18T04:05:20.790Z,20.51
2022-08-18T04:07:51.956Z,20.55
2022-08-18T04:10:22.831Z,20.41
2022-08-18T04:12:54.651Z,19.94
2022-08-18T04:15:26.583Z,20.23
2022-08-18T04:18:06.149Z,20.17
2022-08-18T04:20:37.823Z,20.35
2022-08-18T04:23:10.299Z,20.47
2022-08-18T04:25:41.576Z,20.53
2022-08-18T04:28:12.626Z,20.66
2022-08-18T04:30:43.574Z,20.75
2022-08-18T04:33:14.533Z,20.88
2022-08-18T04:35:46.918Z,20.98
2022-08-18T04:38:17.676Z,21.05
2022-08-18T04:40:48.942Z,21.06
2022-08-18T04:43:19.790Z,21.08
2022-08-18T04:45:51.675Z,21.18
2022-08-18T04:48:23.962Z,21.06
2022-08-18T04:50:54.811Z,21.15
2022-08-18T04:53:43.760Z,21.19
2022-08-18T04:56:27.131Z,21.06
2022-08-18T04:59:00.817Z,21.15
2022-08-18T05:01:35.288Z,21.13
2022-08-18T05:04:07.189Z,21.14
2022-08-18T05:06:38.488Z,21.17
2022-08-18T05:09:11.139Z,21.33
2022-08-18T05:11:45.206Z,21.35
2022-08-18T05:14:16.620Z,21.52
2022-08-18T05:16:49.619Z,21.43
2022-08-18T05:19:26.131Z,21.66
2022-08-18T05:22:00.138Z,21.73
2022-08-18T05:24:37.310Z,21.81
2022-08-18T05:27:07.946Z,21.65
2022-08-18T05:29:41.948Z,21.95
2022-08-18T05:32:11.381Z,22.06
2022-08-18T05:34:44.167Z,22.00
2022-08-18T05:37:35.806Z,22.14
2022-08-18T05:40:11.321Z,22.18
2022-08-18T05:42:42.091Z,22.21
2022-08-18T05:45:18.677Z,22.31
2022-08-18T05:47:50.385Z,22.34
2022-08-18T05:50:22.381Z,22.59
2022-08-18T05:53:14.722Z,22.67
2022-08-18T05:56:09.550Z,22.78
2022-08-18T05:58:43.350Z,22.94
2022-08-18T06:01:17.088Z,23.09
2022-08-18T06:03:54.251Z,23.15
2022-08-18T06:06:33.311Z,23.18
2022-08-18T06:09:25.544Z,23.46
2022-08-18T06:11:59.679Z,23.53
2022-08-18T06:14:30.877Z,23.80
2022-08-18T06:17:20.207Z,23.61
2022-08-18T06:20:00.059Z,23.81
2022-08-18T06:22:52.370Z,23.98
2022-08-18T06:25:23.891Z,24.03
2022-08-18T06:28:17.737Z,24.08
2022-08-18T06:30:57.530Z,24.35
2022-08-18T06:33:48.515Z,24.42
2022-08-18T06:36:31.286Z,24.37
2022-08-18T06:39:15.577Z,24.66
2022-08-18T06:41:53.977Z,24.55
2022-08-18T06:44:47.318Z,24.73
2022-08-18T06:47:28.819Z,24.65
2022-08-18T06:50:26.662Z,24.94
2022-08-18T06:53:00.450Z,25.20
2022-08-18T06:55:37.332Z,25.06
2022-08-18T06:58:17.965Z,25.45
2022-08-18T07:00:56.352Z,25.52
2022-08-18T07:03:48.822Z,25.82
2022-08-18T07:06:25.500Z,25.89
2022-08-18T07:08:59.518Z,25.74
2022-08-18T07:11:35.427Z,25.67
2022-08-18T07:14:26.503Z,25.88
2022-08-18T07:17:12.454Z,26.36
2022-08-18T07:19:44.960Z,26.53
2022-08-18T07:22:18.429Z,26.35
2022-08-18T07:24:55.163Z,26.36
2022-08-18T07:27:46.442Z,26.33
2022-08-18T07:30:20.616Z,26.53
2022-08-18T07:33:14.065Z,26.80
2022-08-18T07:35:49.682Z,26.89
2022-08-18T07:38:43.785Z,27.06
2022-08-18T07:41:21.855Z,27.34
2022-08-18T07:44:01.555Z,27.46
2022-08-18T07:46:41.630Z,27.50
2022-08-18T07:49:18.229Z,27.43
2022-08-18T07:51:53.947Z,27.42
2022-08-18T07:54:51.130Z,27.55
2022-08-18T07:57:48.181Z,27.49
2022-08-18T08:00:58.004Z,27.59
2022-08-18T08:03:35.251Z,27.57
2022-08-18T08:06:26.296Z,27.74
2022-08-18T08:09:05.988Z,28.07
2022-08-18T08:11:53.053Z,27.83
2022-08-18T08:14:44.745Z,27.83
2022-08-18T08:17:24.526Z,27.97
2022-08-18T08:20:21.287Z,28.12
2022-08-18T08:23:04.396Z,28.19
2022-08-18T08:26:04.492Z,28.17
2022-08-18T08:28:38.480Z,28.35
2022-08-18T08:33:51.152Z,28.42
2022-08-18T08:36:37.224Z,28.52
2022-08-18T08:39:14.224Z,28.71
2022-08-18T08:41:51.580Z,28.80
2022-08-18T08:44:58.808Z,28.84
2022-08-18T08:47:25.259Z,28.91
2022-08-18T08:50:03.582Z,28.65
2022-08-18T08:53:01.100Z,28.83
2022-08-18T08:55:35.430Z,28.77
2022-08-18T08:58:27.108Z,28.56
2022-08-18T09:00:59.271Z,28.68
2022-08-18T09:03:41.962Z,28.85
2022-08-18T09:06:25.084Z,28.86
2022-08-18T09:09:22.139Z,29.15
2022-08-18T09:12:04.866Z,29.35
2022-08-18T09:15:12.952Z,29.21
2022-08-18T09:18:05.343Z,29.41
2022-08-18T09:20:59.352Z,29.32
2022-08-18T09:23:36.400Z,29.37
2022-08-18T09:26:34.253Z,29.40
2022-08-18T09:29:16.484Z,29.53
2022-08-18T09:31:48.590Z,29.65
2022-08-18T09:34:24.342Z,29.99
2022-08-18T09:37:15.151Z,29.98
2022-08-18T09:40:12.446Z,29.51
2022-08-18T09:42:48.319Z,29.59
2022-08-18T09:45:36.669Z,29.68
2022-08-18T09:48:25.076Z,30.09
2022-08-18T09:51:18.478Z,30.27
2022-08-18T09:53:56.660Z,30.50
2022-08-18T09:56:55.712Z,30.47
2022-08-18T09:59:42.169Z,30.11
2022-08-18T10:02:22.728Z,30.49
2022-08-18T10:04:55.661Z,30.18
2022-08-18T10:07:43.532Z,30.59
2022-08-18T10:11:01.756Z,30.74
2022-08-18T10:13:24.809Z,30.85
2022-08-18T10:16:12.013Z,30.38
2022-08-18T10:18:46.002Z,30.54
2022-08-18T10:21:22.855Z,30.72
2022-08-18T10:24:35.949Z,30.64
2022-08-18T10:26:54.242Z,30.92
2022-08-18T10:29:30.597Z,31.14
2022-08-18T10:32:14.220Z,31.11
2022-08-18T10:34:52.463Z,31.00
2022-08-18T10:37:40.169Z,31.13
2022-08-18T10:40:21.174Z,31.31
2022-08-18T10:42:54.031Z,31.63
2022-08-18T10:45:33.743Z,31.80
2022-08-18T10:48:29.217Z,31.88
2022-08-18T10:51:57.948Z,31.54
2022-08-18T10:54:18.591Z,30.93
2022-08-18T10:56:57.261Z,30.98
2022-08-18T10:59:49.100Z,31.24
2022-08-18T11:02:21.525Z,31.33
2022-08-18T11:04:58.570Z,31.77
2022-08-18T11:07:34.117Z,31.80
2022-08-18T11:10:29.318Z,31.49
2022-08-18T11:12:47.305Z,31.76
2022-08-18T11:15:23.753Z,31.47
2022-08-18T11:18:17.592Z,31.67
2022-08-18T11:20:48.714Z,32.13
2022-08-18T11:23:20.339Z,31.95
2022-08-18T11:25:52.964Z,32.33
2022-08-18T11:28:30.610Z,32.22
2022-08-18T11:31:02.054Z,32.37
2022-08-18T11:33:34.902Z,32.32
2022-08-18T11:36:08.214Z,32.54
2022-08-18T11:38:42.223Z,32.78
2022-08-18T11:41:17.300Z,32.30
2022-08-18T11:43:50.823Z,32.10
2022-08-18T11:46:31.919Z,32.77
2022-08-18T11:49:05.532Z,32.62
2022-08-18T11:51:39.024Z,32.70
2022-08-18T11:54:17.444Z,32.72
2022-08-18T11:56:48.772Z,32.90
2022-08-18T11:59:54.549Z,32.68
2022-08-18T12:02:11.843Z,32.60
2022-08-18T12:04:44.871Z,32.80
2022-08-18T12:07:20.357Z,32.72
2022-08-18T12:10:16.027Z,33.33
2022-08-18T12:18:01.334Z,33.19
2022-08-18T12:20:32.585Z,33.12
2022-08-18T12:23:03.722Z,33.08
2022-08-18T12:25:36.449Z,32.77
2022-08-18T12:28:10.971Z,32.68
2022-08-18T12:30:42.523Z,33.02
2022-08-18T12:33:14.344Z,33.10
2022-08-18T12:35:45.806Z,33.29
2022-08-18T12:38:19.466Z,33.11
2022-08-18T12:40:50.831Z,33.09
2022-08-18T12:43:23.178Z,33.37
2022-08-18T12:45:55.121Z,33.03
2022-08-18T12:48:27.142Z,33.10
2022-08-18T12:50:59.678Z,32.78
2022-08-18T12:53:49.246Z,33.30
2022-08-18T12:56:04.884Z,33.03
2022-08-18T12:58:36.608Z,33.22
2022-08-18T13:01:07.895Z,33.15
2022-08-18T13:03:38.979Z,33.16
2022-08-18T13:06:12.218Z,33.43
2022-08-18T13:08:49.915Z,33.17
2022-08-18T13:11:23.389Z,32.92
2022-08-18T13:13:52.925Z,33.09
2022-08-18T13:16:30.739Z,32.92
2022-08-18T13:18:57.237Z,32.92
2022-08-18T13:21:28.650Z,33.21
2022-08-18T13:24:01.346Z,32.85
2022-08-18T13:26:37.123Z,32.79
2022-08-18T13:29:10.291Z,33.27
2022-08-18T13:31:42.406Z,32.90
2022-08-18T13:34:19.198Z,32.78
2022-08-18T13:36:48.404Z,32.85
2022-08-18T13:39:24.911Z,32.23
2022-08-18T13:41:57.570Z,32.35
2022-08-18T13:44:30.541Z,32.37
2022-08-18T13:47:01.881Z,32.10
2022-08-18T13:49:32.831Z,31.41
2022-08-18T13:52:08.261Z,31.46
2022-08-18T13:54:37.403Z,31.78
2022-08-18T13:57:09.426Z,31.96
2022-08-18T13:59:46.387Z,31.88
2022-08-18T14:02:14.889Z,31.94
2022-08-18T14:04:48.698Z,32.09
2022-08-18T14:07:24.624Z,32.25
2022-08-18T14:09:54.131Z,32.14
2022-08-18T14:12:32.654Z,32.18
2022-08-18T14:14:59.331Z,31.81
2022-08-18T14:17:30.626Z,32.11
2022-08-18T14:20:22.185Z,32.10
2022-08-18T14:23:13.449Z,31.93
2022-08-18T14:26:03.157Z,31.82
2022-08-18T14:28:34.992Z,31.81
2022-08-18T14:31:08.055Z,31.88
2022-08-18T14:33:51.434Z,31.92
2022-08-18T14:36:12.807Z,31.81
2022-08-18T14:38:44.363Z,31.64
2022-08-18T14:41:16.534Z,31.61
2022-08-18T14:43:51.827Z,31.61
2022-08-18T14:48:52.939Z,31.92
2022-08-18T14:51:26.101Z,31.88
2022-08-18T14:53:56.693Z,31.78
2022-08-18T14:56:28.868Z,31.88
2022-08-18T14:59:01.777Z,31.67
2022-08-18T15:01:35.077Z,31.86
2022-08-18T15:04:18.992Z,31.67
2022-08-18T15:06:40.882Z,31.66
2022-08-18T15:09:11.933Z,31.90
2022-08-18T15:11:45.249Z,31.62
2022-08-18T15:14:19.063Z,31.53
2022-08-18T15:16:52.058Z,31.58
2022-08-18T15:19:58.532Z,31.65
2022-08-18T15:22:13.455Z,31.29
2022-08-18T15:25:06.351Z,31.15
2022-08-18T15:27:43.020Z,31.18
2022-08-18T15:30:19.414Z,31.10
2022-08-18T15:32:51.355Z,31.34
2022-08-18T15:35:22.887Z,31.30
2022-08-18T15:37:55.367Z,31.26
2022-08-18T15:40:31.335Z,30.97
2022-08-18T15:43:03.114Z,31.20
2022-08-18T15:45:43.353Z,31.13
2022-08-18T15:48:13.826Z,31.12
2022-08-18T15:50:51.256Z,31.07
2022-08-18T15:53:23.926Z,31.19
2022-08-18T15:55:55.154Z,30.90
2022-08-18T15:58:29.293Z,30.83
2022-08-18T16:01:00.526Z,31.10
2022-08-18T16:03:32.208Z,30.73
2022-08-18T16:06:03.791Z,30.73
2022-08-18T16:08:36.792Z,30.71
2022-08-18T16:11:24.626Z,30.61
2022-08-18T16:13:48.757Z,30.51
2022-08-18T16:16:29.742Z,30.75
2022-08-18T16:18:58.836Z,30.79
2022-08-18T16:21:30.261Z,30.55
2022-08-18T16:24:01.550Z,30.47
2022-08-18T16:26:32.864Z,30.38
2022-08-18T16:29:04.072Z,30.41
2022-08-18T16:31:35.165Z,30.23
2022-08-18T16:34:06.538Z,30.41
2022-08-18T16:36:38.243Z,30.35
2022-08-18T16:39:09.278Z,30.24
2022-08-18T16:41:40.710Z,30.23
2022-08-18T16:44:11.702Z,30.17
2022-08-18T16:46:43.565Z,30.20
2022-08-18T16:49:15.464Z,29.96
2022-08-18T16:51:46.533Z,30.11
2022-08-18T16:54:18.915Z,29.89
2022-08-18T16:56:50.373Z,30.02
2022-08-18T16:59:39.651Z,29.83
2022-08-18T17:02:19.331Z,29.85
2022-08-18T17:04:52.409Z,29.92
2022-08-18T17:07:23.343Z,29.64
2022-08-18T17:09:54.603Z,29.70
2022-08-18T17:12:27.189Z,29.66
2022-08-18T17:14:59.044Z,29.63
2022-08-18T17:17:31.506Z,29.48
2022-08-18T17:20:11.100Z,29.64
2022-08-18T17:22:36.877Z,29.47
2022-08-18T17:25:09.980Z,29.46
2022-08-18T17:27:43.074Z,29.41
2022-08-18T17:30:18.827Z,29.13
2022-08-18T17:33:01.188Z,29.34
2022-08-18T17:35:40.549Z,29.17
2022-08-18T17:38:17.431Z,29.13
2022-08-18T17:40:51.184Z,29.01
2022-08-18T17:43:29.401Z,29.00
2022-08-18T17:46:09.491Z,28.78
2022-08-18T17:48:49.946Z,28.78
2022-08-18T17:51:43.412Z,28.83
2022-08-18T17:54:24.102Z,28.70
2022-08-18T17:56:57.940Z,28.67
2022-08-18T17:59:46.546Z,28.62
2022-08-18T18:02:28.420Z,28.62
2022-08-18T18:04:49.459Z,28.59
2022-08-18T18:07:26.460Z,28.61
2022-08-18T18:10:07.856Z,28.43
2022-08-18T18:12:39.944Z,28.29
2022-08-18T18:15:14.025Z,28.37
2022-08-18T18:17:47.311Z,28.29
2022-08-18T18:20:38.764Z,28.17
2022-08-18T18:23:25.106Z,28.03
2022-08-18T18:25:57.817Z,27.77
2022-08-18T18:28:35.134Z,27.76
2022-08-18T18:31:27.085Z,27.76
2022-08-18T18:34:03.801Z,27.72
2022-08-18T18:36:40.881Z,27.62
2022-08-18T18:39:36.120Z,27.67
2022-08-18T18:42:19.487Z,27.59
2022-08-18T18:44:59.533Z,27.58
2022-08-18T18:47:56.493Z,27.48
2022-08-18T18:50:39.312Z,27.02
2022-08-18T18:53:37.908Z,27.19
2022-08-18T18:56:19.115Z,27.17
2022-08-18T18:58:58.956Z,27.26
2022-08-18T19:01:36.091Z,27.37
2022-08-18T19:04:09.897Z,27.22
2022-08-18T19:06:47.027Z,27.33
2022-08-18T19:09:29.159Z,27.20
2022-08-18T19:12:09.399Z,27.16
2022-08-18T19:14:43.218Z,27.18
2022-08-18T19:17:23.087Z,27.21
2022-08-18T19:20:03.254Z,27.02
2022-08-18T19:23:01.909Z,27.18
2022-08-18T19:25:51.127Z,27.03
2022-08-18T19:28:38.819Z,26.99
2022-08-18T19:31:33.005Z,27.07
2022-08-18T19:34:22.701Z,27.05
2022-08-18T19:36:56.578Z,26.74
2022-08-18T19:39:36.896Z,26.71
2022-08-18T19:42:27.752Z,26.96
2022-08-18T19:45:16.249Z,26.78
2022-08-18T19:47:55.938Z,26.87
2022-08-18T19:50:54.212Z,26.99
2022-08-18T19:53:50.549Z,26.76
2022-08-18T19:56:38.568Z,26.72
2022-08-18T19:59:46.367Z,26.48
2022-08-18T20:02:27.161Z,26.61
2022-08-18T20:05:29.853Z,26.67
2022-08-18T20:08:18.842Z,26.57
2022-08-18T20:10:53.185Z,26.51
2022-08-18T20:13:44.716Z,26.44
2022-08-18T20:16:43.966Z,26.53
2022-08-18T20:19:31.372Z,26.25
2022-08-18T20:22:10.486Z,26.15
2022-08-18T20:24:50.271Z,26.11
2022-08-18T20:27:26.970Z,26.26
2022-08-18T20:30:16.727Z,26.46
2022-08-18T20:33:26.063Z,26.21
2022-08-18T20:36:12.679Z,26.11
2022-08-18T20:38:53.734Z,26.07
2022-08-18T20:41:33.501Z,26.04
2022-08-18T20:44:38.474Z,26.06
2022-08-18T20:47:36.968Z,26.02
2022-08-18T20:50:17.013Z,26.12
2022-08-18T20:53:08.634Z,26.06
2022-08-18T20:55:48.493Z,25.72
2022-08-18T20:58:23.951Z,25.68
2022-08-18T21:00:57.690Z,25.62
2022-08-18T21:03:37.331Z,25.97
2022-08-18T21:06:09.890Z,25.86
2022-08-18T21:08:45.343Z,25.79
2022-08-18T21:11:27.180Z,25.90
2022-08-18T21:14:04.465Z,25.88
2022-08-18T21:16:42.927Z,25.92
2022-08-18T21:19:24.150Z,25.89
2022-08-18T21:22:00.644Z,25.86
2022-08-18T21:24:40.711Z,25.72
2022-08-18T21:27:19.450Z,25.73
2022-08-18T21:29:52.231Z,25.75
2022-08-18T21:32:27.280Z,25.77
2022-08-18T21:34:58.524Z,25.59
2022-08-18T21:37:31.432Z,25.69
2022-08-18T21:40:06.531Z,25.61
2022-08-18T21:42:46.602Z,25.28
2022-08-18T21:45:25.168Z,25.31
2022-08-18T21:47:59.283Z,25.30
2022-08-18T21:50:36.226Z,25.53
2022-08-18T21:53:16.667Z,25.43
2022-08-18T21:55:51.140Z,25.38
2022-08-18T21:58:32.949Z,25.21
2022-08-18T22:01:23.087Z,25.12
2022-08-18T22:03:58.521Z,25.08
2022-08-18T22:06:32.235Z,24.90
2022-08-18T22:09:35.928Z,24.88
2022-08-18T22:12:52.212Z,24.95
2022-08-18T22:15:24.864Z,24.94
2022-08-18T22:18:01.471Z,24.92
2022-08-18T22:20:52.429Z,24.95
2022-08-18T22:24:00.899Z,24.75
2022-08-18T22:26:35.077Z,24.75
2022-08-18T22:29:14.739Z,24.68
2022-08-18T22:31:49.167Z,24.58
2022-08-18T22:34:27.347Z,24.42
2022-08-18T22:37:00.895Z,24.54
2022-08-18T22:39:37.346Z,24.67
2022-08-18T22:42:10.217Z,24.59
2022-08-18T22:44:43.879Z,24.71
2022-08-18T22:47:15.614Z,24.56
2022-08-18T22:49:46.837Z,24.49
2022-08-18T22:52:20.754Z,24.52
2022-08-18T22:54:54.780Z,24.48
2022-08-18T22:57:25.740Z,24.37
2022-08-18T22:59:57.828Z,24.29
2022-08-18T23:02:30.749Z,24.30
2022-08-18T23:05:01.996Z,24.39
2022-08-18T23:07:34.262Z,24.31
2022-08-18T23:10:13.718Z,24.14
2022-08-18T23:12:40.685Z,24.24
2022-08-18T23:15:12.526Z,24.20
2022-08-18T23:17:45.033Z,24.22
2022-08-18T23:20:19.254Z,24.30
2022-08-18T23:22:50.809Z,24.14
2022-08-18T23:25:21.704Z,24.16
2022-08-18T23:27:54.191Z,24.07
2022-08-18T23:30:30.307Z,24.04
2022-08-18T23:32:59.175Z,24.00
2022-08-18T23:35:30.165Z,23.75
2022-08-18T23:38:02.046Z,23.88
2022-08-18T23:40:32.954Z,23.92
2022-08-18T23:43:04.412Z,23.83
2022-08-18T23:45:41.288Z,23.89
2022-08-18T23:48:13.226Z,23.83
2022-08-18T23:50:46.398Z,23.87
2022-08-18T23:53:19.223Z,23.88
2022-08-18T23:55:51.309Z,23.76
2022-08-18T23:58:22.376Z,23.88
